Time;durP1;ratioP1;P1;durP2;ratioP2;P2;SDS_P1;SDS_P2;PMS_P1;PMS_P2;Temp;Humidity;BMP_temperature;BMP_pressure;BME280_temperature;BME280_humidity;BME280_pressure;Samples;Min_cycle;Max_cycle;Signal;HPM_P1;HPM_P2
2023/03/25 00:00:56;;;;;;;22.30;11.10;;;;;;;12.08;70.56;64219.63;5032337;28;20214;-58
2023/03/25 00:03:25;;;;;;;17.43;11.33;;;;;;;12.03;69.56;64214.13;5032073;28;20350;-59
2023/03/25 00:05:55;;;;;;;21.23;10.77;;;;;;;12.09;69.88;64218.19;5032244;28;20202;-56
2023/03/25 00:08:23;;;;;;;22.77;10.82;;;;;;;12.03;69.35;64211.59;5032041;28;20178;-58
2023/03/25 00:10:53;;;;;;;17.65;11.65;;;;;;;11.97;70.57;64208.09;5032000;28;20206;-58
2023/03/25 00:13:20;;;;;;;18.13;10.88;;;;;;;12.03;71.41;64214.13;5031683;28;20346;-59
2023/03/25 00:15:47;;;;;;;19.88;11.20;;;;;;;12.04;71.12;64215.25;5031801;28;20214;-56
2023/03/25 00:18:16;;;;;;;21.95;11.65;;;;;;;12.00;71.62;64208.84;5031837;28;20269;-54
2023/03/25 00:20:44;;;;;;;16.57;11.33;;;;;;;12.05;70.22;64216.31;5031711;28;20217;-57
2023/03/25 00:23:11;;;;;;;17.20;11.17;;;;;;;12.16;69.18;64226.41;5014033;28;20348;-58
2023/03/25 00:25:36;;;;;;;23.30;10.85;;;;;;;12.12;70.84;64224.00;5031596;28;20214;-57
2023/03/25 00:28:02;;;;;;;17.50;11.40;;;;;;;12.10;69.43;64222.34;5031797;28;20186;-59
2023/03/25 00:30:27;;;;;;;18.20;11.03;;;;;;;12.10;70.42;64219.81;5031579;28;20303;-58
2023/03/25 00:32:53;;;;;;;19.48;10.68;;;;;;;12.03;69.68;64211.59;5030750;28;20679;-58
2023/03/25 00:35:19;;;;;;;13.83;10.00;;;;;;;11.95;70.58;64203.38;5031758;28;20297;-57
2023/03/25 00:37:46;;;;;;;16.65;10.30;;;;;;;12.00;70.92;64211.38;5031665;28;20212;-57
2023/03/25 00:40:13;;;;;;;18.60;10.77;;;;;;;11.79;70.81;64188.38;5031719;28;20209;-57
2023/03/25 00:42:48;;;;;;;16.80;10.03;;;;;;;11.75;70.01;64182.03;5031444;28;20691;-56
2023/03/25 00:45:15;;;;;;;13.50;9.35;;;;;;;11.84;69.66;64193.84;5031860;28;20287;-56
2023/03/25 00:47:42;;;;;;;16.35;8.75;;;;;;;11.91;70.29;64198.44;5031366;28;20186;-58
2023/03/25 00:50:08;;;;;;;17.63;10.47;;;;;;;11.93;70.69;64203.72;5031427;28;20686;-53
2023/03/25 00:52:34;;;;;;;18.98;10.38;;;;;;;11.99;70.31;64207.78;5013677;28;20228;-54
2023/03/25 00:55:00;;;;;;;16.55;9.73;;;;;;;11.78;70.51;64187.28;5013807;28;20233;-54
2023/03/25 00:57:26;;;;;;;15.30;9.93;;;;;;;11.88;70.04;64195.72;5031553;28;20186;-55
2023/03/25 00:59:51;;;;;;;16.50;9.50;;;;;;;11.63;70.89;64168.84;5031533;28;20268;-54
2023/03/25 01:02:17;;;;;;;13.43;9.68;;;;;;;11.62;70.97;64170.28;4997243;28;20214;-54
2023/03/25 01:04:44;;;;;;;18.43;10.17;;;;;;;11.80;70.16;64187.50;5031085;28;20619;-53
2023/03/25 01:07:11;;;;;;;17.97;10.47;;;;;;;11.78;70.48;64187.81;5031396;28;20674;-53
2023/03/25 01:09:38;;;;;;;14.13;9.90;;;;;;;11.65;70.55;64171.03;5031329;28;20272;-54
2023/03/25 01:12:04;;;;;;;12.20;9.30;;;;;;;11.51;71.87;64155.69;5031155;28;20182;-55
2023/03/25 01:14:29;;;;;;;17.50;9.52;;;;;;;11.55;72.13;64159.53;5031393;28;20206;-57
2023/03/25 01:16:57;;;;;;;18.93;9.93;;;;;;;11.53;72.70;64157.88;5013163;28;20733;-56
2023/03/25 01:19:23;;;;;;;13.93;9.60;;;;;;;11.55;71.73;64162.06;5031238;28;20292;-58
2023/03/25 01:21:48;;;;;;;13.70;9.20;;;;;;;11.71;70.90;64180.16;5031109;28;20297;-54
2023/03/25 01:24:14;;;;;;;18.03;9.50;;;;;;;11.57;72.09;64164.78;5030914;28;20271;-54
2023/03/25 01:26:42;;;;;;;13.57;9.23;;;;;;;11.53;72.56;64157.88;5013198;28;20189;-53
2023/03/25 01:29:08;;;;;;;16.10;10.17;;;;;;;11.47;72.45;64153.28;5031008;28;20218;-54
2023/03/25 01:31:33;;;;;;;19.10;9.35;;;;;;;11.43;71.64;64146.38;5030701;28;20328;-53
2023/03/25 01:34:00;;;;;;;16.03;9.40;;;;;;;11.29;72.18;64134.09;5038507;22;20234;-64
2023/03/25 01:36:28;;;;;;;13.18;8.38;;;;;;;11.26;72.24;64130.28;5030700;28;20190;-55
2023/03/25 01:38:54;;;;;;;11.55;7.82;;;;;;;11.19;72.85;64123.16;5030766;28;20259;-54
2023/03/25 01:41:20;;;;;;;12.88;8.82;;;;;;;11.20;72.38;64123.72;5030659;28;20260;-55
2023/03/25 01:44:06;;;;;;;12.98;8.23;;;;;;;11.31;71.76;64135.75;5030479;28;20591;-54
2023/03/25 01:46:32;;;;;;;14.97;7.87;;;;;;;11.24;71.36;64128.63;5030721;28;20182;-53
2023/03/25 01:49:01;;;;;;;13.37;7.70;;;;;;;11.29;71.22;64133.56;5030398;28;20229;-54
2023/03/25 01:51:31;;;;;;;12.90;7.67;;;;;;;11.40;71.07;64140.56;5030467;28;20189;-53
2023/03/25 01:53:56;;;;;;;9.80;7.17;;;;;;;10.98;70.91;64102.69;5030695;28;20214;-56
2023/03/25 01:56:29;;;;;;;11.27;8.23;;;;;;;11.09;71.09;64109.69;5029252;28;20205;-56
2023/03/25 01:58:56;;;;;;;12.07;7.27;;;;;;;11.05;71.77;64105.31;5030739;28;20205;-54
2023/03/25 02:01:22;;;;;;;11.67;8.07;;;;;;;11.02;72.21;64102.03;5030420;28;20194;-54
2023/03/25 02:03:51;;;;;;;11.13;8.10;;;;;;;11.07;72.27;64106.97;5030581;28;20632;-55
2023/03/25 02:06:41;;;;;;;10.10;7.33;;;;;;;11.10;71.72;64112.75;5030510;28;20198;-56
2023/03/25 02:09:10;;;;;;;9.20;7.10;;;;;;;11.17;71.11;64117.91;5023381;28;20572;-52
2023/03/25 02:11:37;;;;;;;11.13;7.60;;;;;;;11.12;71.92;64112.97;5030198;28;20202;-54
2023/03/25 02:14:09;;;;;;;9.67;7.30;;;;;;;11.04;72.27;64106.75;5030378;28;20343;-55
2023/03/25 02:16:46;;;;;;;8.70;6.80;;;;;;;11.12;72.36;64114.94;5030182;28;20209;-58
2023/03/25 02:19:39;;;;;;;11.43;7.47;;;;;;;11.14;72.35;64117.13;5030276;28;20215;-56
2023/03/25 02:22:36;;;;;;;12.10;7.03;;;;;;;11.04;72.50;64109.25;5030028;28;20213;-57
2023/03/25 02:25:34;;;;;;;10.20;7.33;;;;;;;11.03;71.91;64103.09;5030041;28;20370;-53
2023/03/25 02:28:24;;;;;;;13.47;6.93;;;;;;;10.92;72.33;64091.06;5029944;28;20194;-54
2023/03/25 02:31:07;;;;;;;10.93;7.27;;;;;;;10.94;72.26;64095.78;5029943;28;20254;-54
2023/03/25 02:33:57;;;;;;;12.83;7.47;;;;;;;10.88;72.42;64089.78;5029910;28;20202;-53
2023/03/25 02:36:35;;;;;;;12.23;7.33;;;;;;;10.81;72.91;64081.53;5029975;28;20249;-53
2023/03/25 02:39:04;;;;;;;10.20;7.30;;;;;;;10.81;72.96;64079.56;5030118;28;20206;-54
2023/03/25 02:41:39;;;;;;;13.10;7.53;;;;;;;10.94;72.56;64095.78;5029772;28;20228;-55
2023/03/25 02:44:10;;;;;;;12.93;7.53;;;;;;;10.80;72.76;64078.50;5030055;28;20255;-57
2023/03/25 02:46:40;;;;;;;13.73;8.93;;;;;;;10.66;73.66;64062.63;5012104;28;20301;-58
2023/03/25 02:49:20;;;;;;;11.00;6.83;;;;;;;10.45;74.04;64042.69;5030000;28;20225;-57
2023/03/25 02:51:57;;;;;;;11.23;6.97;;;;;;;10.71;72.81;64070.59;5030058;28;20185;-57
2023/03/25 02:54:25;;;;;;;12.00;7.00;;;;;;;10.73;72.24;64072.78;5012206;28;20633;-56
2023/03/25 02:56:56;;;;;;;10.70;7.10;;;;;;;10.61;72.69;64059.66;5015390;28;20190;-56
2023/03/25 02:59:24;;;;;;;9.63;6.97;;;;;;;10.76;72.21;64076.63;5033420;28;20258;-57
2023/03/25 03:01:57;;;;;;;8.63;6.10;;;;;;;10.77;71.09;64077.16;5032931;28;20723;-56
2023/03/25 03:04:24;;;;;;;11.90;6.23;;;;;;;10.55;71.83;64048.59;5031886;28;20297;-56
2023/03/25 03:06:51;;;;;;;7.30;6.23;;;;;;;10.58;72.35;64056.38;5033128;28;20342;-56
2023/03/25 03:09:28;;;;;;;10.10;7.10;;;;;;;10.63;71.97;64059.88;5032922;28;20210;-57
2023/03/25 03:12:03;;;;;;;9.83;6.40;;;;;;;10.41;72.49;64038.31;5032948;28;20202;-57
2023/03/25 03:14:47;;;;;;;10.27;6.30;;;;;;;10.67;71.71;64066.78;5033133;28;20324;-55
2023/03/25 03:17:34;;;;;;;10.23;6.17;;;;;;;10.58;72.07;64053.84;5033107;28;20194;-56
2023/03/25 03:20:25;;;;;;;10.87;6.63;;;;;;;10.55;72.39;64053.09;5032800;28;20298;-54
2023/03/25 03:23:11;;;;;;;13.30;6.80;;;;;;;10.46;72.98;64043.25;5032996;28;20225;-56
2023/03/25 03:25:47;;;;;;;11.00;7.00;;;;;;;10.46;73.32;64040.72;5032695;28;20289;-56
2023/03/25 03:28:44;;;;;;;8.67;6.90;;;;;;;10.44;74.82;64038.53;5032721;28;20263;-56
2023/03/25 03:31:19;;;;;;;10.03;7.50;;;;;;;10.47;74.47;64042.34;5032515;28;20698;-57
2023/03/25 03:33:51;;;;;;;9.37;6.67;;;;;;;10.52;74.77;64049.81;5032672;28;20185;-57
2023/03/25 03:36:24;;;;;;;12.97;8.13;;;;;;;10.43;75.58;64039.94;5032764;28;20284;-54
2023/03/25 03:38:57;;;;;;;12.57;6.90;;;;;;;10.39;76.62;64038.09;5032611;28;20190;-59
2023/03/25 03:41:26;;;;;;;9.47;6.90;;;;;;;10.51;75.05;64046.19;5032535;28;20198;-59
2023/03/25 03:44:03;;;;;;;10.47;7.10;;;;;;;10.71;73.78;64068.06;5032307;28;20205;-61
2023/03/25 03:46:35;;;;;;;10.93;6.50;;;;;;;10.71;73.48;64071.16;5032329;28;20182;-58
2023/03/25 03:49:03;;;;;;;13.07;6.93;;;;;;;10.31;74.46;64024.84;5032337;28;20210;-56
2023/03/25 03:51:37;;;;;;;12.17;7.07;;;;;;;10.13;75.83;64008.22;5032096;28;20201;-56
2023/03/25 03:54:13;;;;;;;10.63;7.27;;;;;;;10.24;75.92;64019.16;5032233;28;20210;-56
2023/03/25 03:56:45;;;;;;;16.80;7.53;;;;;;;10.06;75.94;63999.97;5032282;28;20189;-56
2023/03/25 03:59:19;;;;;;;9.00;6.70;;;;;;;10.11;77.25;64005.47;5032288;28;20829;-56
2023/03/25 04:01:52;;;;;;;9.17;7.50;;;;;;;10.06;76.81;63999.97;5032239;28;20225;-56
2023/03/25 04:04:25;;;;;;;12.00;6.70;;;;;;;10.17;76.00;64012.06;5032413;28;20206;-56
2023/03/25 04:07:03;;;;;;;12.87;7.10;;;;;;;9.98;76.41;63989.25;5032057;28;20657;-57
2023/03/25 04:09:53;;;;;;;10.97;7.80;;;;;;;9.90;77.26;63980.50;5032345;28;20206;-56
2023/03/25 04:12:28;;;;;;;13.87;7.40;;;;;;;9.71;78.57;63964.78;5032256;28;20194;-57
2023/03/25 04:14:55;;;;;;;12.03;7.87;;;;;;;9.79;77.95;63970.47;5032058;28;20233;-55
2023/03/25 04:17:22;;;;;;;11.70;7.53;;;;;;;9.85;78.17;63977.56;5032019;28;20281;-58
2023/03/25 04:19:52;;;;;;;12.50;7.93;;;;;;;9.85;77.85;63974.50;5030864;28;20213;-54
2023/03/25 04:22:19;;;;;;;12.47;7.63;;;;;;;9.91;77.48;63984.13;5031844;28;20213;-53
2023/03/25 04:24:48;;;;;;;14.93;9.00;;;;;;;9.91;78.31;63983.59;5032162;28;20553;-53
2023/03/25 04:27:14;;;;;;;12.23;7.63;;;;;;;9.77;79.20;63963.78;5031860;28;20571;-54
2023/03/25 04:29:40;;;;;;;19.03;8.77;;;;;;;9.84;78.98;63973.41;5031953;28;20217;-54
2023/03/25 04:32:07;;;;;;;15.87;10.30;;;;;;;9.80;79.96;63969.56;5031898;28;20214;-54
2023/03/25 04:34:32;;;;;;;14.87;9.87;;;;;;;9.82;80.75;63971.22;5031541;28;20355;-58
2023/03/25 04:36:57;;;;;;;12.97;9.07;;;;;;;9.92;79.97;63980.19;5031623;28;20190;-58
2023/03/25 04:39:24;;;;;;;16.83;9.43;;;;;;;9.92;80.18;63984.66;5031706;28;20351;-59
2023/03/25 04:42:02;;;;;;;15.53;9.50;;;;;;;10.00;79.41;63993.97;5013725;28;20218;-57
2023/03/25 04:44:37;;;;;;;19.23;8.77;;;;;;;9.94;79.93;63986.84;5031818;28;20209;-53
2023/03/25 04:47:06;;;;;;;18.53;8.93;;;;;;;9.95;79.27;63985.44;5031560;28;20206;-54
2023/03/25 04:49:31;;;;;;;27.70;9.57;;;;;;;9.99;79.20;63990.38;5031782;28;20289;-57
2023/03/25 04:51:58;;;;;;;19.63;10.40;;;;;;;10.03;79.07;63996.72;5031376;28;20324;-55
2023/03/25 04:54:23;;;;;;;19.87;8.97;;;;;;;10.17;78.10;64009.53;5031323;28;20359;-56
2023/03/25 04:56:51;;;;;;;22.93;9.70;;;;;;;10.19;78.02;64011.16;5031525;28;20273;-55
2023/03/25 04:59:17;;;;;;;18.33;9.33;;;;;;;10.19;78.48;64013.69;5031363;28;20214;-54
2023/03/25 05:01:51;;;;;;;13.40;8.70;;;;;;;10.05;79.49;63998.91;5030968;28;20210;-54
2023/03/25 05:04:17;;;;;;;15.90;9.70;;;;;;;9.95;79.73;63986.00;5031417;28;20214;-54
2023/03/25 05:06:46;;;;;;;19.87;8.90;;;;;;;9.93;79.24;63983.81;5031228;28;20193;-53
2023/03/25 05:09:23;;;;;;;14.93;8.17;;;;;;;10.23;79.24;64018.63;5031100;28;20210;-55
2023/03/25 05:11:50;;;;;;;18.33;8.90;;;;;;;10.49;77.33;64046.50;5031191;28;20182;-58
2023/03/25 05:14:18;;;;;;;19.63;9.30;;;;;;;10.38;76.57;64031.97;5031052;28;20285;-57
2023/03/25 05:16:45;;;;;;;14.00;9.17;;;;;;;10.44;76.52;64041.59;5030859;28;20245;-58
2023/03/25 05:19:11;;;;;;;11.17;8.27;;;;;;;10.45;76.29;64042.69;5030365;28;20249;-57
2023/03/25 05:21:39;;;;;;;13.67;8.43;;;;;;;10.31;75.62;64026.81;5030746;28;20571;-57
2023/03/25 05:24:09;;;;;;;12.90;7.20;;;;;;;10.20;76.15;64015.31;5012873;28;20213;-53
2023/03/25 05:26:35;;;;;;;12.30;8.33;;;;;;;10.14;76.62;64009.31;5031042;28;20263;-58
2023/03/25 05:29:03;;;;;;;15.33;7.87;;;;;;;10.30;76.43;64025.72;5031142;28;20240;-56
2023/03/25 05:31:28;;;;;;;13.50;8.30;;;;;;;10.44;75.58;64041.06;5030807;28;20668;-57
2023/03/25 05:33:53;;;;;;;16.67;8.33;;;;;;;10.67;74.94;64063.69;5030618;28;20217;-55
2023/03/25 05:36:19;;;;;;;11.93;7.40;;;;;;;10.86;74.53;64084.50;5030777;28;20222;-54
2023/03/25 05:38:45;;;;;;;15.07;8.43;;;;;;;10.72;73.80;64072.25;5030718;28;20254;-56
2023/03/25 05:41:17;;;;;;;13.53;7.40;;;;;;;10.66;75.02;64062.63;5030720;28;20664;-55
2023/03/25 05:43:46;;;;;;;13.73;8.07;;;;;;;10.80;73.84;64080.47;5012812;28;20214;-54
2023/03/25 05:46:16;;;;;;;10.93;7.37;;;;;;;10.90;73.57;64091.97;5030481;28;20308;-53
2023/03/25 05:48:42;;;;;;;12.27;8.00;;;;;;;10.97;73.16;64099.06;5030414;28;20606;-57
2023/03/25 05:51:20;;;;;;;13.73;8.00;;;;;;;11.24;72.24;64128.63;5030501;28;20190;-62
2023/03/25 05:53:50;;;;;;;12.80;7.47;;;;;;;11.25;71.89;64129.72;5012810;28;20225;-57
2023/03/25 05:56:18;;;;;;;13.20;8.00;;;;;;;11.38;71.65;64143.97;5030561;28;20198;-54
2023/03/25 05:58:47;;;;;;;9.37;7.07;;;;;;;11.44;71.59;64150.56;5030430;28;20186;-54
2023/03/25 06:01:14;;;;;;;18.00;8.33;;;;;;;11.55;71.46;64160.06;5030380;28;20193;-54
2023/03/25 06:03:40;;;;;;;16.67;9.20;;;;;;;11.67;70.29;64173.25;5030363;28;20221;-55
2023/03/25 06:06:17;;;;;;;14.00;8.43;;;;;;;11.87;69.09;64194.06;5030525;28;20691;-53
2023/03/25 06:08:49;;;;;;;13.30;9.73;;;;;;;11.82;69.48;64189.69;5030309;28;20197;-55
2023/03/25 06:11:16;;;;;;;14.93;10.10;;;;;;;11.69;69.63;64177.97;5030280;28;20674;-56
2023/03/25 06:13:48;;;;;;;11.10;7.67;;;;;;;11.87;69.46;64197.16;5030265;28;20221;-57
2023/03/25 06:16:26;;;;;;;18.47;11.17;;;;;;;11.82;69.66;64191.13;5030208;28;20201;-58
2023/03/25 06:18:55;;;;;;;11.87;8.33;;;;;;;12.02;68.81;64213.56;5030140;28;20722;-58
2023/03/25 06:21:21;;;;;;;11.20;6.57;;;;;;;12.46;67.10;64256.22;5012197;28;20680;-57
2023/03/25 06:23:48;;;;;;;11.43;7.03;;;;;;;12.23;67.50;64236.06;5029984;28;20546;-57
2023/03/25 06:26:17;;;;;;;13.47;7.37;;;;;;;12.40;68.09;64252.72;5012247;28;20201;-57
2023/03/25 06:28:43;;;;;;;10.68;7.68;;;;;;;12.62;67.45;64276.31;5029938;28;20218;-57
2023/03/25 06:31:12;;;;;;;8.88;6.68;;;;;;;12.59;67.92;64273.00;5014826;28;20218;-57
2023/03/25 06:33:38;;;;;;;11.95;7.35;;;;;;;12.58;68.38;64272.44;5033547;28;20245;-54
2023/03/25 06:36:03;;;;;;;12.63;6.88;;;;;;;12.52;68.41;64267.88;5033456;28;20281;-54
2023/03/25 06:38:29;;;;;;;9.97;6.90;;;;;;;12.41;68.95;64255.78;5033721;28;20227;-53
2023/03/25 06:40:55;;;;;;;10.05;6.88;;;;;;;12.60;69.08;64277.16;5033579;28;20206;-54
2023/03/25 06:43:21;;;;;;;10.73;7.13;;;;;;;12.75;68.88;64290.56;5033113;28;20217;-55
2023/03/25 06:45:50;;;;;;;9.82;7.43;;;;;;;12.88;66.89;64304.81;5015432;28;20260;-55
2023/03/25 06:48:15;;;;;;;14.50;7.05;;;;;;;12.88;67.27;64302.28;5033446;28;20221;-55
2023/03/25 06:50:41;;;;;;;10.52;8.07;;;;;;;13.03;66.97;64323.81;5033407;28;20223;-57
2023/03/25 06:53:06;;;;;;;12.93;7.60;;;;;;;12.96;67.65;64316.13;5033390;28;20605;-54
2023/03/25 06:55:32;;;;;;;17.23;7.47;;;;;;;13.09;66.66;64327.88;5033295;28;20218;-55
2023/03/25 06:57:57;;;;;;;17.02;9.40;;;;;;;13.15;66.82;64334.47;5033154;28;20248;-55
2023/03/25 07:00:25;;;;;;;14.03;10.47;;;;;;;13.18;67.19;64337.22;5033495;28;20335;-57
2023/03/25 07:02:51;;;;;;;14.82;10.18;;;;;;;13.24;67.76;64344.34;5033060;28;20206;-58
2023/03/25 07:05:17;;;;;;;20.63;10.87;;;;;;;13.41;67.88;64365.00;5033068;28;20216;-56
2023/03/25 07:07:43;;;;;;;14.82;10.15;;;;;;;13.84;90.69;64409.09;5032618;28;20197;-57
2023/03/25 07:10:12;;;;;;;16.95;10.93;;;;;;;13.70;67.29;64393.72;5015141;28;20276;-56
2023/03/25 07:12:45;;;;;;;14.55;10.02;;;;;;;13.46;69.53;64368.50;5031802;28;20216;-56
2023/03/25 07:15:11;;;;;;;15.90;9.57;;;;;;;13.50;68.02;64372.34;5031701;28;20214;-55
2023/03/25 07:17:37;;;;;;;17.45;11.32;;;;;;;13.65;68.27;64388.25;5032974;28;20190;-57
2023/03/25 07:20:05;;;;;;;18.33;11.05;;;;;;;13.59;67.64;64381.66;5032242;28;20490;-57
2023/03/25 07:22:31;;;;;;;20.85;10.63;;;;;;;13.69;67.79;64395.19;5014270;28;20213;-59
2023/03/25 07:24:57;;;;;;;18.95;11.13;;;;;;;13.69;68.10;64393.19;5014917;28;20285;-57
2023/03/25 07:27:24;;;;;;;16.85;10.80;;;;;;;13.72;67.73;64398.47;5032634;28;20209;-56
2023/03/25 07:29:49;;;;;;;23.20;10.70;;;;;;;13.79;85.55;64403.63;5015014;28;20293;-57
2023/03/25 07:32:15;;;;;;;20.98;10.15;;;;;;;14.42;80.13;64467.78;5032806;28;20186;-57
2023/03/25 07:34:40;;;;;;;18.40;10.55;;;;;;;14.44;67.33;64474.50;5032624;28;20221;-58
2023/03/25 07:37:07;;;;;;;22.48;10.70;;;;;;;14.34;67.45;64461.53;5032636;28;20200;-58
2023/03/25 07:39:33;;;;;;;13.60;9.57;;;;;;;14.40;66.46;64470.66;5031928;28;20236;-59
2023/03/25 07:41:58;;;;;;;12.35;9.38;;;;;;;14.59;63.86;64491.53;5031873;28;20742;-59
2023/03/25 07:44:24;;;;;;;16.02;10.45;;;;;;;14.52;64.39;64483.84;5032827;28;20339;-54
2023/03/25 07:46:49;;;;;;;16.73;10.82;;;;;;;14.50;64.43;64481.66;5032470;28;20194;-54
2023/03/25 07:49:15;;;;;;;17.30;11.30;;;;;;;14.54;64.37;64486.03;5032576;28;20213;-55
2023/03/25 07:51:42;;;;;;;14.85;9.73;;;;;;;14.60;64.64;64492.63;5032173;28;20198;-55
2023/03/25 07:54:07;;;;;;;18.20;11.40;;;;;;;14.47;63.62;64477.78;5032385;28;20671;-56
2023/03/25 07:56:32;;;;;;;25.92;11.00;;;;;;;14.39;64.64;64467.00;5026434;28;20335;-55
2023/03/25 07:58:58;;;;;;;16.80;10.25;;;;;;;14.17;65.08;64445.34;5031325;28;21679;-55
2023/03/25 08:01:23;;;;;;;20.02;10.23;;;;;;;14.21;64.71;64449.75;5017664;28;20194;-56
2023/03/25 08:03:49;;;;;;;15.68;11.15;;;;;;;14.39;66.77;64466.47;5012449;28;20689;-56
2023/03/25 08:06:14;;;;;;;17.95;10.15;;;;;;;14.69;64.58;64499.97;5021888;28;20672;-57
2023/03/25 08:08:40;;;;;;;20.35;10.85;;;;;;;14.84;64.79;64518.44;5032157;28;20216;-55
2023/03/25 08:11:06;;;;;;;16.67;11.07;;;;;;;14.80;62.98;64512.06;5032133;28;20704;-55
2023/03/25 08:13:32;;;;;;;25.55;11.70;;;;;;;14.77;63.60;64508.22;5032224;28;20220;-54
2023/03/25 08:15:58;;;;;;;18.90;11.32;;;;;;;14.84;65.54;64521.00;5031978;28;20194;-55
2023/03/25 08:18:24;;;;;;;23.52;11.00;;;;;;;15.18;64.50;64557.81;5013935;28;20205;-58
2023/03/25 08:20:50;;;;;;;18.08;11.57;;;;;;;15.29;62.39;64567.38;5031633;28;20215;-54
2023/03/25 08:23:19;;;;;;;18.85;11.05;;;;;;;15.37;62.66;64576.72;5031848;28;20218;-55
2023/03/25 08:25:49;;;;;;;16.65;10.90;;;;;;;15.80;61.78;64621.50;5031748;28;20305;-54
2023/03/25 08:28:17;;;;;;;18.50;10.68;;;;;;;16.02;60.58;64644.63;5031440;28;20201;-55
2023/03/25 08:30:43;;;;;;;18.40;10.10;;;;;;;16.08;58.31;64654.31;5032000;28;20241;-55
2023/03/25 08:33:10;;;;;;;13.68;9.65;;;;;;;16.14;58.30;64657.81;5013780;28;20201;-54
2023/03/25 08:35:37;;;;;;;18.48;9.63;;;;;;;16.06;56.86;64652.09;5031142;28;20210;-56
2023/03/25 08:38:07;;;;;;;17.58;10.05;;;;;;;16.12;57.07;64658.69;5031543;28;20202;-56
2023/03/25 08:40:34;;;;;;;15.93;9.80;;;;;;;16.40;57.30;64689.53;5031603;28;20232;-55
2023/03/25 08:43:02;;;;;;;12.15;8.70;;;;;;;16.69;54.96;64724.03;5031423;28;20226;-55
2023/03/25 08:45:27;;;;;;;17.13;9.35;;;;;;;17.07;58.04;64762.78;5032094;28;20688;-55
2023/03/25 08:47:53;;;;;;;14.18;8.90;;;;;;;17.22;54.98;64778.75;5031902;28;20186;-54
2023/03/25 08:50:18;;;;;;;16.90;9.93;;;;;;;17.30;53.32;64785.03;5031532;28;20229;-54
2023/03/25 08:52:44;;;;;;;15.85;9.07;;;;;;;17.39;53.52;64798.03;5030953;28;20689;-53
2023/03/25 08:55:10;;;;;;;12.50;8.85;;;;;;;17.78;53.23;64835.38;5031902;28;20206;-55
2023/03/25 08:57:36;;;;;;;13.73;8.82;;;;;;;18.08;51.55;64871.00;5031825;28;20178;-54
2023/03/25 09:00:09;;;;;;;16.73;9.50;;;;;;;18.23;51.87;64889.56;5032154;28;20218;-54
2023/03/25 09:02:36;;;;;;;15.73;8.25;;;;;;;18.30;51.65;64895.28;5031727;28;20703;-59
2023/03/25 09:05:02;;;;;;;17.13;9.27;;;;;;;18.14;51.23;64877.09;5031870;28;20289;-58
2023/03/25 09:07:29;;;;;;;14.88;8.73;;;;;;;18.14;50.38;64877.63;5031783;28;20221;-58
2023/03/25 09:09:54;;;;;;;17.45;8.93;;;;;;;18.21;49.81;64884.81;5031224;28;20241;-59
2023/03/25 09:12:20;;;;;;;17.75;9.10;;;;;;;18.68;49.74;64934.13;5031769;28;20189;-58
2023/03/25 09:14:45;;;;;;;17.17;9.50;;;;;;;18.65;50.04;64933.34;5031895;28;20297;-59
2023/03/25 09:17:10;;;;;;;14.20;9.10;;;;;;;19.03;49.22;64975.28;5031540;28;20580;-59
2023/03/25 09:19:36;;;;;;;15.27;8.63;;;;;;;19.46;49.49;65021.66;5031722;28;20282;-59
2023/03/25 09:22:02;;;;;;;16.80;7.82;;;;;;;19.58;46.63;65037.47;5031352;28;20739;-58
2023/03/25 09:24:28;;;;;;;12.27;7.95;;;;;;;19.93;48.23;65073.56;5031514;28;20625;-58
2023/03/25 09:26:53;;;;;;;13.93;8.45;;;;;;;20.46;47.69;65131.59;5031414;28;20618;-59
2023/03/25 09:29:18;;;;;;;10.60;7.70;;;;;;;20.84;47.58;65176.72;5031083;28;20692;-59
2023/03/25 09:31:44;;;;;;;11.98;8.07;;;;;;;20.99;45.16;65190.16;5031341;28;20277;-58
2023/03/25 09:34:10;;;;;;;14.32;7.97;;;;;;;20.51;46.59;65137.66;5031208;28;20574;-59
2023/03/25 09:36:36;;;;;;;16.13;8.23;;;;;;;20.07;46.15;65089.03;5031226;28;20190;-58
2023/03/25 09:39:01;;;;;;;14.85;8.43;;;;;;;20.04;46.03;65086.25;5031407;28;20209;-59
2023/03/25 09:41:40;;;;;;;12.32;7.47;;;;;;;20.56;44.32;65142.63;5031258;28;20279;-56
2023/03/25 09:44:15;;;;;;;12.70;6.90;;;;;;;20.68;43.73;65153.34;5031192;28;20221;-55
2023/03/25 09:46:43;;;;;;;10.55;7.40;;;;;;;20.84;43.73;65176.16;5031302;28;20236;-55
2023/03/25 09:49:15;;;;;;;12.45;7.65;;;;;;;21.47;43.60;65240.69;5031422;28;20214;-59
2023/03/25 09:51:43;;;;;;;9.27;6.78;;;;;;;22.02;42.32;65303.56;5031192;28;20221;-56
2023/03/25 09:54:17;;;;;;;13.93;7.93;;;;;;;21.92;41.43;65291.97;5031272;28;20272;-56
2023/03/25 09:56:43;;;;;;;13.02;7.47;;;;;;;20.67;43.37;65157.34;5030894;28;20222;-54
2023/03/25 09:59:49;;;;;;;10.93;7.63;;;;;;;20.50;43.31;65136.00;5031280;28;20726;-54
2023/03/25 10:02:26;;;;;;;11.52;7.82;;;;;;;21.06;42.09;65197.94;4970122;28;20623;-54
2023/03/25 10:05:18;;;;;;;10.95;7.30;;;;;;;21.12;43.58;65204.00;4969990;28;20701;-59
2023/03/25 10:07:55;;;;;;;14.20;6.93;;;;;;;20.74;42.97;65165.66;5014690;28;20249;-56
2023/03/25 10:10:51;;;;;;;10.95;6.57;;;;;;;20.42;43.03;65127.16;5031103;28;20722;-55
2023/03/25 10:13:41;;;;;;;12.75;7.55;;;;;;;20.34;42.76;65118.34;5031114;28;20198;-53
2023/03/25 10:16:48;;;;;;;10.60;6.72;;;;;;;20.22;42.59;65108.16;4990425;28;20302;-53
2023/03/25 10:19:35;;;;;;;8.27;5.78;;;;;;;19.81;43.14;65060.31;5022493;28;20306;-55
2023/03/25 10:22:10;;;;;;;16.02;6.18;;;;;;;19.68;42.38;65046.50;5030590;28;20217;-54
2023/03/25 10:25:10;;;;;;;8.60;5.47;;;;;;;19.97;42.41;65077.97;5030955;28;20244;-53
2023/03/25 10:27:43;;;;;;;9.85;5.78;;;;;;;20.43;42.36;65128.81;5030570;28;20206;-54
2023/03/25 10:30:08;;;;;;;9.15;4.93;;;;;;;20.59;42.09;65145.94;5030553;28;20239;-58
2023/03/25 10:32:40;;;;;;;6.13;4.75;;;;;;;20.83;40.30;65175.59;5030820;28;20193;-55
2023/03/25 10:35:14;;;;;;;6.55;3.95;;;;;;;21.15;39.41;65209.91;5030815;28;20209;-56
2023/03/25 10:37:43;;;;;;;8.40;4.22;;;;;;;21.44;38.95;65239.94;5030740;28;20190;-55
2023/03/25 10:40:26;;;;;;;5.93;3.85;;;;;;;21.35;37.71;65229.97;5030354;28;20238;-55
2023/03/25 10:42:58;;;;;;;7.00;4.07;;;;;;;21.01;37.25;65189.28;5030321;28;20305;-56
2023/03/25 10:45:25;;;;;;;7.40;3.40;;;;;;;21.14;36.74;65209.34;5030780;28;20229;-54
2023/03/25 10:47:58;;;;;;;3.35;3.05;;;;;;;21.64;35.83;65264.06;5030258;28;20196;-58
2023/03/25 10:50:24;;;;;;;5.75;3.40;;;;;;;22.11;34.66;65313.00;5030659;28;20695;-57
2023/03/25 10:52:51;;;;;;;7.22;3.78;;;;;;;22.69;34.31;65377.22;5030232;28;20698;-57
2023/03/25 10:55:29;;;;;;;10.35;4.32;;;;;;;23.46;34.93;65461.41;5030429;28;20238;-60
2023/03/25 10:57:55;;;;;;;4.80;3.35;;;;;;;23.43;33.49;65455.53;5030520;28;20725;-55
2023/03/25 11:00:25;;;;;;;3.55;3.25;;;;;;;23.42;33.52;65456.97;5030168;28;20218;-56
2023/03/25 11:02:51;;;;;;;4.82;3.17;;;;;;;23.09;33.04;65420.94;5030267;28;20225;-57
2023/03/25 11:05:19;;;;;;;6.55;3.53;;;;;;;22.40;34.50;65343.06;5030107;28;20221;-58
2023/03/25 11:07:48;;;;;;;4.88;3.50;;;;;;;22.31;34.95;65335.69;5029901;28;20217;-56
2023/03/25 11:10:24;;;;;;;7.55;3.30;;;;;;;22.12;35.75;65312.06;5030354;28;20218;-56
2023/03/25 11:12:51;;;;;;;3.85;3.45;;;;;;;22.41;36.15;65343.63;5029765;28;20189;-54
2023/03/25 11:15:28;;;;;;;6.10;3.28;;;;;;;22.38;35.68;65340.84;5030156;28;20214;-54
2023/03/25 11:18:21;;;;;;;5.47;3.65;;;;;;;22.84;35.39;65393.84;5033392;28;20842;-55
2023/03/25 11:20:50;;;;;;;5.95;3.67;;;;;;;23.05;34.86;65416.53;5031202;28;20284;-54
2023/03/25 11:23:24;;;;;;;4.63;3.60;;;;;;;23.15;34.63;65428.16;5033350;28;20209;-54
2023/03/25 11:25:49;;;;;;;6.53;3.67;;;;;;;22.81;35.13;65389.94;5033401;28;20214;-57
2023/03/25 11:28:21;;;;;;;6.00;3.45;;;;;;;22.95;35.01;65402.88;5033263;28;20561;-57
2023/03/25 11:31:11;;;;;;;4.45;3.42;;;;;;;22.71;35.79;65382.00;5033545;28;20221;-55
2023/03/25 11:33:37;;;;;;;5.40;3.53;;;;;;;22.85;35.58;65394.94;5033162;28;20193;-54
2023/03/25 11:36:25;;;;;;;10.43;4.35;;;;;;;23.69;35.08;65484.34;5033222;28;20222;-55
2023/03/25 11:38:56;;;;;;;5.50;4.15;;;;;;;23.62;33.60;65476.56;5033698;28;20206;-59